createdAt,value
2019-04-20T00:00:02.690Z,35.90
2019-04-20T00:02:31.687Z,35.97
2019-04-20T00:05:01.267Z,36.07
2019-04-20T00:07:34.376Z,36.08
2019-04-20T00:10:08.704Z,36.11
2019-04-20T00:12:48.680Z,36.04
2019-04-20T00:15:07.073Z,36.25
2019-04-20T00:17:39.357Z,36.15
2019-04-20T00:20:13.443Z,35.99
2019-04-20T00:22:58.345Z,36.12
2019-04-20T00:25:57.836Z,36.13
2019-04-20T00:28:35.160Z,36.01
2019-04-20T00:31:09.620Z,36.01
2019-04-20T00:33:38.853Z,36.11
2019-04-20T00:35:54.849Z,36.15
2019-04-20T00:38:27.998Z,36.26
2019-04-20T00:41:02.165Z,36.39
2019-04-20T00:43:32.141Z,36.28
2019-04-20T00:46:06.697Z,36.34
2019-04-20T00:48:38.950Z,36.51
2019-04-20T00:51:23.898Z,36.39
2019-04-20T00:53:39.635Z,36.44
2019-04-20T00:56:03.889Z,36.41
2019-04-20T00:58:48.347Z,36.39
2019-04-20T01:01:25.208Z,36.42
2019-04-20T01:03:49.685Z,36.60
2019-04-20T01:06:41.178Z,36.79
2019-04-20T01:08:57.077Z,36.96
2019-04-20T01:11:33.228Z,37.20
2019-04-20T01:14:03.058Z,37.43
2019-04-20T01:16:41.203Z,37.58
2019-04-20T01:19:01.111Z,37.78
2019-04-20T01:21:33.461Z,37.85
2019-04-20T01:24:06.282Z,37.87
2019-04-20T01:26:36.467Z,37.85
2019-04-20T01:29:16.731Z,37.93
2019-04-20T01:31:49.616Z,38.14
2019-04-20T01:34:25.211Z,38.26
2019-04-20T01:36:55.660Z,38.45
2019-04-20T01:39:22.141Z,38.54
2019-04-20T01:41:41.481Z,38.49
2019-04-20T01:44:11.222Z,38.54
2019-04-20T01:46:46.656Z,38.66
2019-04-20T01:49:20.207Z,38.80
2019-04-20T01:51:54.426Z,38.94
2019-04-20T01:54:32.676Z,38.83
2019-04-20T01:56:59.230Z,38.96
2019-04-20T01:59:34.514Z,39.11
2019-04-20T02:02:14.053Z,39.22
2019-04-20T02:04:45.971Z,39.23
2019-04-20T02:07:13.550Z,39.39
2019-04-20T02:09:49.951Z,39.44
2019-04-20T02:12:21.885Z,39.59
2019-04-20T02:14:53.651Z,39.80
2019-04-20T02:17:28.361Z,40.00
2019-04-20T02:20:14.405Z,40.08
2019-04-20T02:22:38.362Z,40.18
2019-04-20T02:24:51.294Z,40.37
2019-04-20T02:27:29.957Z,40.63
2019-04-20T02:30:22.052Z,40.68
2019-04-20T02:32:58.888Z,40.72
2019-04-20T02:35:34.639Z,40.81
2019-04-20T02:40:47.567Z,40.92
2019-04-20T02:43:07.884Z,41.14
2019-04-20T02:48:13.508Z,41.11
2019-04-20T02:50:43.280Z,41.12
2019-04-20T02:53:20.309Z,41.45
2019-04-20T02:55:48.157Z,41.67
2019-04-20T02:58:14.884Z,41.80
2019-04-20T03:00:39.668Z,42.08
2019-04-20T03:03:03.210Z,42.31
2019-04-20T03:05:33.149Z,42.74
2019-04-20T03:10:56.736Z,42.39
2019-04-20T03:13:19.838Z,42.46
2019-04-20T03:15:51.903Z,42.43
2019-04-20T03:18:19.661Z,42.58
2019-04-20T03:20:54.986Z,42.69
2019-04-20T03:26:12.777Z,42.85
2019-04-20T03:29:00.212Z,42.83
2019-04-20T03:32:22.222Z,42.66
2019-04-20T03:34:47.435Z,42.89
2019-04-20T03:36:59.449Z,43.24
2019-04-20T03:39:23.261Z,43.53
2019-04-20T03:41:43.442Z,43.72
2019-04-20T03:44:14.156Z,44.33
2019-04-20T03:46:47.953Z,44.56
2019-04-20T03:49:38.053Z,44.85
2019-04-20T03:52:03.950Z,44.79
2019-04-20T03:54:34.722Z,44.51
2019-04-20T03:57:24.268Z,44.57
2019-04-20T04:00:00.647Z,44.75
2019-04-20T04:05:22.259Z,44.82
2019-04-20T04:07:38.680Z,45.02
2019-04-20T04:10:18.408Z,45.28
2019-04-20T04:13:15.021Z,45.68
2019-04-20T04:15:51.926Z,45.94
2019-04-20T04:18:27.984Z,46.14
2019-04-20T04:20:59.423Z,46.32
2019-04-20T04:23:40.954Z,46.50
2019-04-20T04:26:29.264Z,46.54
2019-04-20T04:28:41.191Z,46.53
2019-04-20T04:31:18.744Z,46.71
2019-04-20T04:36:13.538Z,46.56
2019-04-20T04:38:56.131Z,46.67
2019-04-20T04:41:24.211Z,46.69
2019-04-20T04:43:54.205Z,46.53
2019-04-20T04:46:05.953Z,46.50
2019-04-20T04:48:40.413Z,46.47
2019-04-20T04:51:13.626Z,46.14
2019-04-20T04:53:47.846Z,45.66
2019-04-20T04:56:16.073Z,45.26
2019-04-20T04:58:40.838Z,45.04
2019-04-20T05:01:16.612Z,45.02
2019-04-20T05:04:05.577Z,45.05
2019-04-20T05:06:31.774Z,44.88
2019-04-20T05:08:51.437Z,44.76
2019-04-20T05:11:17.418Z,44.64
2019-04-20T05:13:54.613Z,44.73
2019-04-20T05:16:38.533Z,44.54
2019-04-20T05:19:13.313Z,44.28
2019-04-20T05:21:55.223Z,44.29
2019-04-20T05:24:25.581Z,44.85
2019-04-20T05:27:08.726Z,44.85
2019-04-20T05:29:22.515Z,44.51
2019-04-20T05:31:53.783Z,44.10
2019-04-20T05:34:40.076Z,43.67
2019-04-20T05:37:17.722Z,42.90
2019-04-20T05:39:44.733Z,42.07
2019-04-20T05:42:19.132Z,41.83
2019-04-20T05:44:45.588Z,41.28
2019-04-20T05:47:19.924Z,40.83
2019-04-20T05:49:48.433Z,40.86
2019-04-20T05:52:31.298Z,40.76
2019-04-20T05:54:51.396Z,40.87
2019-04-20T05:57:25.027Z,40.72
2019-04-20T06:00:02.192Z,40.26
2019-04-20T06:02:29.419Z,39.94
2019-04-20T06:07:34.229Z,39.10
2019-04-20T06:10:05.790Z,38.89
2019-04-20T06:12:34.414Z,38.64
2019-04-20T06:15:13.262Z,38.51
2019-04-20T06:18:02.710Z,38.33
2019-04-20T06:20:41.206Z,38.17
2019-04-20T06:23:41.543Z,37.71
2019-04-20T06:26:21.403Z,37.47
2019-04-20T06:28:29.973Z,37.16
2019-04-20T06:31:11.332Z,36.55
2019-04-20T06:34:30.391Z,36.51
2019-04-20T06:39:24.117Z,36.12
2019-04-20T06:44:30.595Z,34.57
2019-04-20T06:47:05.583Z,34.59
2019-04-20T06:49:28.903Z,34.72
2019-04-20T06:51:58.687Z,34.44
2019-04-20T06:54:36.117Z,34.38
2019-04-20T06:57:07.427Z,34.17
2019-04-20T06:59:47.705Z,33.73
2019-04-20T07:02:18.353Z,33.62
2019-04-20T07:04:50.472Z,33.39
2019-04-20T07:07:15.639Z,33.17
2019-04-20T07:09:55.885Z,33.10
2019-04-20T07:12:13.104Z,32.87
2019-04-20T07:14:36.684Z,32.44
2019-04-20T07:17:29.824Z,31.88
2019-04-20T07:19:51.738Z,31.61
2019-04-20T07:22:32.148Z,31.35
2019-04-20T07:24:56.488Z,30.96
2019-04-20T07:27:29.527Z,30.49
2019-04-20T07:29:58.962Z,29.95
2019-04-20T07:32:23.341Z,29.67
2019-04-20T07:35:03.310Z,29.42
2019-04-20T07:38:04.640Z,28.98
2019-04-20T07:40:07.510Z,28.91
2019-04-20T07:42:40.786Z,28.74
2019-04-20T07:45:16.847Z,28.66
2019-04-20T07:50:09.321Z,28.17
2019-04-20T07:52:33.746Z,27.48
2019-04-20T07:57:45.970Z,25.60
2019-04-20T08:00:21.328Z,25.05
2019-04-20T08:03:12.456Z,24.40
2019-04-20T08:05:46.765Z,23.47
2019-04-20T08:08:23.972Z,22.54
2019-04-20T08:10:53.689Z,21.60
2019-04-20T08:13:39.015Z,21.27
2019-04-20T08:16:00.758Z,20.72
2019-04-20T08:18:32.217Z,20.21
2019-04-20T08:21:02.693Z,20.00
2019-04-20T08:23:33.608Z,19.24
2019-04-20T08:25:53.227Z,18.62
2019-04-20T08:28:29.147Z,18.30
2019-04-20T08:31:08.851Z,18.13
2019-04-20T08:33:55.114Z,19.02
2019-04-20T08:36:23.148Z,18.60
2019-04-20T08:41:23.265Z,16.34
2019-04-20T08:46:26.330Z,15.23
2019-04-20T08:48:55.890Z,14.58
2019-04-20T08:51:39.264Z,13.98
2019-04-20T08:53:56.999Z,13.89
2019-04-20T08:56:24.637Z,13.77
2019-04-20T08:58:43.509Z,13.36
2019-04-20T09:01:20.233Z,12.92
2019-04-20T09:03:56.450Z,12.60
2019-04-20T09:06:32.264Z,12.37
2019-04-20T09:09:01.631Z,12.56
2019-04-20T09:11:44.136Z,12.27
2019-04-20T09:13:55.889Z,12.47
2019-04-20T09:16:37.087Z,11.91
2019-04-20T09:19:04.676Z,11.58
2019-04-20T09:21:40.297Z,11.39
2019-04-20T09:24:29.992Z,11.92
2019-04-20T09:26:47.496Z,12.04
2019-04-20T09:29:17.074Z,11.84
2019-04-20T09:31:47.253Z,11.20
2019-04-20T09:34:33.687Z,10.89
2019-04-20T09:37:21.465Z,10.59
2019-04-20T09:39:44.952Z,10.28
2019-04-20T09:42:06.806Z,10.01
2019-04-20T09:44:41.031Z,9.74
2019-04-20T09:47:10.533Z,9.81
2019-04-20T09:49:54.092Z,9.22
2019-04-20T09:52:21.220Z,9.17
2019-04-20T09:54:58.961Z,8.91
2019-04-20T09:57:33.892Z,8.85
2019-04-20T10:00:01.717Z,8.74
2019-04-20T10:02:23.362Z,8.85
2019-04-20T10:04:47.402Z,8.88
2019-04-20T10:07:21.371Z,8.32
2019-04-20T10:09:49.064Z,7.86
2019-04-20T10:12:19.853Z,7.78
2019-04-20T10:14:49.461Z,7.82
2019-04-20T10:17:20.186Z,7.41
2019-04-20T10:19:51.305Z,6.99
2019-04-20T10:22:22.456Z,7.21
2019-04-20T10:24:53.810Z,6.88
2019-04-20T10:27:24.305Z,6.70
2019-04-20T10:29:53.953Z,6.69
2019-04-20T10:32:29.945Z,6.49
2019-04-20T10:34:56.748Z,6.13
2019-04-20T10:37:29.366Z,6.24
2019-04-20T10:39:59.053Z,6.03
2019-04-20T10:42:32.208Z,5.85
2019-04-20T10:45:02.876Z,5.45
2019-04-20T10:47:33.313Z,5.22
2019-04-20T10:50:04.932Z,5.33
2019-04-20T10:52:35.973Z,5.03
2019-04-20T10:55:08.395Z,5.19
2019-04-20T10:57:38.061Z,5.12
2019-04-20T11:00:11.780Z,5.15
2019-04-20T11:02:44.640Z,4.92
2019-04-20T11:05:14.714Z,4.94
2019-04-20T11:07:44.415Z,4.91
2019-04-20T11:10:21.485Z,4.71
2019-04-20T11:12:46.366Z,4.45
2019-04-20T11:15:16.547Z,4.11
2019-04-20T11:17:49.136Z,4.55
2019-04-20T11:20:19.305Z,3.67
2019-04-20T11:22:48.902Z,3.59
2019-04-20T11:25:19.942Z,3.74
2019-04-20T11:27:50.114Z,3.44
2019-04-20T11:30:22.486Z,2.89
2019-04-20T11:32:52.320Z,2.74
2019-04-20T11:35:30.635Z,2.89
2019-04-20T11:37:55.463Z,3.31
2019-04-20T11:40:25.058Z,3.11
2019-04-20T11:42:55.389Z,3.17
2019-04-20T11:45:25.063Z,2.43
2019-04-20T11:47:55.770Z,2.60
2019-04-20T11:50:27.484Z,2.68
2019-04-20T11:52:57.296Z,2.59
2019-04-20T11:55:27.020Z,2.63
2019-04-20T11:57:56.664Z,2.43
2019-04-20T12:00:53.872Z,2.47
2019-04-20T12:03:30.025Z,2.38
2019-04-20T12:05:57.332Z,2.57
2019-04-20T12:08:27.064Z,2.60
2019-04-20T12:11:00.377Z,2.59
2019-04-20T12:13:28.977Z,2.60
2019-04-20T12:15:59.351Z,2.80
2019-04-20T12:18:29.553Z,2.78
2019-04-20T12:21:00.836Z,2.93
2019-04-20T12:23:30.711Z,2.71
2019-04-20T12:26:02.421Z,2.91
2019-04-20T12:28:33.693Z,3.01
2019-04-20T12:31:12.949Z,3.10
2019-04-20T12:33:37.716Z,3.35
2019-04-20T12:36:10.132Z,3.26
2019-04-20T12:38:41.212Z,2.83
2019-04-20T12:41:12.561Z,2.97
2019-04-20T12:43:43.520Z,2.96
2019-04-20T12:46:17.894Z,2.70
2019-04-20T12:48:45.130Z,2.15
2019-04-20T12:51:15.579Z,1.90
2019-04-20T12:53:46.568Z,2.41
2019-04-20T12:56:16.942Z,2.16
2019-04-20T12:58:47.370Z,2.24
2019-04-20T13:01:21.057Z,2.05
2019-04-20T13:03:49.739Z,2.25
2019-04-20T13:06:19.669Z,2.33
2019-04-20T13:08:54.808Z,2.44
2019-04-20T13:11:32.070Z,2.92
2019-04-20T13:14:34.720Z,3.21
2019-04-20T13:17:04.367Z,3.58
2019-04-20T13:19:35.162Z,3.85
2019-04-20T13:22:05.280Z,3.81
2019-04-20T13:24:34.954Z,3.50
2019-04-20T13:27:04.840Z,3.05
2019-04-20T13:29:35.129Z,3.04
2019-04-20T13:32:05.486Z,3.06
2019-04-20T13:34:36.095Z,3.28
2019-04-20T13:37:06.382Z,3.36
2019-04-20T13:39:36.146Z,2.95
2019-04-20T13:42:13.402Z,2.92
2019-04-20T13:44:37.162Z,3.39
2019-04-20T13:47:07.253Z,3.52
2019-04-20T13:49:38.753Z,3.21
2019-04-20T13:52:08.788Z,3.07
2019-04-20T13:54:39.746Z,2.96
2019-04-20T13:57:11.399Z,2.83
2019-04-20T13:59:46.137Z,2.95
2019-04-20T14:02:15.514Z,3.18
2019-04-20T14:04:48.583Z,3.60
2019-04-20T14:07:20.198Z,3.54
2019-04-20T14:09:51.181Z,3.49
2019-04-20T14:12:29.658Z,3.56
2019-04-20T14:14:53.151Z,3.39
2019-04-20T14:17:23.427Z,3.45
2019-04-20T14:19:53.262Z,3.32
2019-04-20T14:22:23.100Z,3.32
2019-04-20T14:24:53.248Z,3.33
2019-04-20T14:27:24.554Z,3.45
2019-04-20T14:29:55.105Z,3.51
2019-04-20T14:32:25.023Z,3.45
2019-04-20T14:34:54.656Z,3.42
2019-04-20T14:37:24.682Z,3.66
2019-04-20T14:39:54.518Z,3.58
2019-04-20T14:42:35.099Z,3.69
2019-04-20T14:44:55.599Z,4.50
2019-04-20T14:47:25.648Z,6.22
2019-04-20T14:49:58.322Z,8.26
2019-04-20T14:52:27.779Z,10.24
2019-04-20T14:54:57.634Z,11.87
2019-04-20T14:57:27.614Z,13.60
2019-04-20T15:00:15.397Z,13.85
2019-04-20T15:02:45.849Z,14.51
2019-04-20T15:05:16.995Z,15.25
2019-04-20T15:07:46.833Z,16.04
2019-04-20T15:10:16.629Z,16.33
2019-04-20T15:12:52.863Z,16.65
2019-04-20T15:15:18.746Z,16.79
2019-04-20T15:17:55.964Z,17.09
2019-04-20T15:20:25.606Z,17.33
2019-04-20T15:22:57.179Z,17.36
2019-04-20T15:25:27.450Z,17.68
2019-04-20T15:27:58.121Z,18.07
2019-04-20T15:30:29.719Z,17.94
2019-04-20T15:33:00.985Z,18.15
2019-04-20T15:35:30.685Z,18.76
2019-04-20T15:38:00.264Z,18.40
2019-04-20T15:40:31.038Z,18.43
2019-04-20T15:43:08.340Z,18.25
2019-04-20T15:45:33.539Z,18.46
2019-04-20T15:48:03.822Z,18.96
2019-04-20T15:50:33.908Z,18.73
2019-04-20T15:53:05.780Z,18.87
2019-04-20T15:55:39.458Z,19.27
2019-04-20T15:58:08.324Z,18.99
2019-04-20T16:00:38.339Z,19.46
2019-04-20T16:03:09.698Z,19.59
2019-04-20T16:05:56.687Z,19.36
2019-04-20T16:08:39.697Z,19.55
2019-04-20T16:11:11.097Z,19.53
2019-04-20T16:13:44.672Z,19.81
2019-04-20T16:16:12.669Z,19.66
2019-04-20T16:18:45.187Z,19.87
2019-04-20T16:21:21.873Z,19.77
2019-04-20T16:23:54.815Z,19.53
2019-04-20T16:26:39.791Z,19.80
2019-04-20T16:29:09.584Z,19.96
2019-04-20T16:31:40.415Z,20.07
2019-04-20T16:34:11.575Z,20.35
2019-04-20T16:36:41.405Z,20.63
2019-04-20T16:39:12.649Z,21.04
2019-04-20T16:41:42.488Z,20.52
2019-04-20T16:44:13.311Z,20.59
2019-04-20T16:46:43.010Z,20.65
2019-04-20T16:49:12.999Z,20.77
2019-04-20T16:51:43.049Z,20.99
2019-04-20T16:54:13.898Z,21.19
2019-04-20T16:56:44.534Z,21.50
2019-04-20T16:59:16.923Z,21.75
2019-04-20T17:01:46.623Z,22.07
2019-04-20T17:04:20.609Z,22.19
2019-04-20T17:07:05.948Z,22.22
2019-04-20T17:09:35.791Z,22.36
2019-04-20T17:12:05.878Z,22.52
2019-04-20T17:14:35.717Z,22.74
2019-04-20T17:17:05.590Z,22.92
2019-04-20T17:19:35.570Z,23.00
2019-04-20T17:22:05.921Z,23.50
2019-04-20T17:24:35.746Z,24.16
2019-04-20T17:27:16.997Z,24.53
2019-04-20T17:30:05.230Z,24.85
2019-04-20T17:32:37.164Z,24.97
2019-04-20T17:35:20.675Z,25.30
2019-04-20T17:37:44.643Z,25.55
2019-04-20T17:40:35.268Z,25.72
2019-04-20T17:42:53.163Z,25.74
2019-04-20T17:45:28.339Z,25.73
2019-04-20T17:48:01.866Z,26.28
2019-04-20T17:50:42.874Z,26.33
2019-04-20T17:53:07.218Z,26.50
2019-04-20T17:55:40.414Z,26.79
2019-04-20T17:58:13.753Z,26.96
2019-04-20T18:00:44.142Z,27.24
2019-04-20T18:03:54.040Z,27.38
2019-04-20T18:06:15.056Z,27.88
2019-04-20T18:08:45.392Z,28.05
2019-04-20T18:11:03.785Z,28.57
2019-04-20T18:13:29.095Z,28.50
2019-04-20T18:16:23.507Z,28.89
2019-04-20T18:18:55.303Z,28.82
2019-04-20T18:21:21.005Z,29.16
2019-04-20T18:23:51.849Z,29.02
2019-04-20T18:26:43.253Z,29.28
2019-04-20T18:29:10.335Z,29.43
2019-04-20T18:31:41.776Z,29.57
2019-04-20T18:34:18.848Z,30.01
2019-04-20T18:36:47.715Z,30.05
2019-04-20T18:39:25.635Z,30.16
2019-04-20T18:41:53.633Z,30.46
2019-04-20T18:44:27.686Z,30.75
2019-04-20T18:47:10.646Z,30.99
2019-04-20T18:49:36.106Z,31.16
2019-04-20T18:51:55.656Z,31.38
2019-04-20T18:54:28.581Z,31.54
2019-04-20T18:56:58.071Z,31.64
2019-04-20T18:59:33.394Z,31.93
2019-04-20T19:01:59.403Z,32.24
2019-04-20T19:04:30.133Z,32.44
2019-04-20T19:06:59.744Z,32.64
2019-04-20T19:09:32.020Z,32.80
2019-04-20T19:12:04.039Z,33.02
2019-04-20T19:14:50.925Z,33.19
2019-04-20T19:17:40.415Z,33.41
2019-04-20T19:20:02.348Z,33.52
2019-04-20T19:22:35.139Z,33.64
2019-04-20T19:25:03.869Z,33.70
2019-04-20T19:27:39.948Z,34.06
2019-04-20T19:30:21.443Z,34.23
2019-04-20T19:33:01.095Z,34.41
2019-04-20T19:35:28.132Z,34.62
2019-04-20T19:37:56.213Z,34.70
2019-04-20T19:40:29.019Z,34.80
2019-04-20T19:43:01.263Z,35.07
2019-04-20T19:45:43.933Z,35.24
2019-04-20T19:48:06.074Z,35.45
2019-04-20T19:50:41.391Z,35.64
2019-04-20T19:53:18.636Z,35.72
2019-04-20T19:55:43.009Z,35.81
2019-04-20T19:58:07.166Z,35.85
2019-04-20T20:00:51.758Z,36.08
2019-04-20T20:03:21.840Z,36.32
2019-04-20T20:05:54.283Z,36.33
2019-04-20T20:08:27.470Z,36.44
2019-04-20T20:10:58.229Z,36.65
2019-04-20T20:13:34.607Z,36.81
2019-04-20T20:16:06.067Z,36.84
2019-04-20T20:18:46.001Z,36.47
2019-04-20T20:21:17.596Z,36.26
2019-04-20T20:23:34.358Z,36.30
2019-04-20T20:26:07.217Z,36.22
2019-04-20T20:28:43.705Z,36.08
2019-04-20T20:31:20.082Z,36.12
2019-04-20T20:33:55.861Z,35.94
2019-04-20T20:36:15.587Z,35.95
2019-04-20T20:38:45.703Z,36.03
2019-04-20T20:41:20.592Z,35.98
2019-04-20T20:43:56.442Z,36.07
2019-04-20T20:46:27.205Z,36.02
2019-04-20T20:49:11.750Z,36.12
2019-04-20T20:51:44.034Z,36.17
2019-04-20T20:53:59.864Z,36.21
2019-04-20T20:56:29.167Z,36.17
2019-04-20T20:59:03.990Z,36.09
2019-04-20T21:01:28.210Z,36.10
2019-04-20T21:03:58.419Z,36.08
2019-04-20T21:06:28.718Z,36.17
2019-04-20T21:09:02.048Z,36.20
2019-04-20T21:11:34.806Z,36.22
2019-04-20T21:14:04.477Z,36.29
2019-04-20T21:16:40.173Z,36.41
2019-04-20T21:19:21.520Z,36.38
2019-04-20T21:21:45.418Z,36.42
2019-04-20T21:24:14.358Z,36.48
2019-04-20T21:26:44.129Z,36.55
2019-04-20T21:29:13.628Z,36.58
2019-04-20T21:31:52.509Z,36.74
2019-04-20T21:34:18.662Z,36.82
2019-04-20T21:36:47.278Z,36.83
2019-04-20T21:39:30.212Z,36.86
2019-04-20T21:41:56.869Z,36.99
2019-04-20T21:44:25.213Z,37.12
2019-04-20T21:46:54.463Z,37.26
2019-04-20T21:49:37.584Z,37.24
2019-04-20T21:52:00.701Z,37.30
2019-04-20T21:54:26.149Z,37.39
2019-04-20T21:57:01.596Z,37.57
2019-04-20T21:59:34.505Z,37.60
2019-04-20T22:02:07.778Z,37.57
2019-04-20T22:04:31.078Z,37.59
2019-04-20T22:07:02.433Z,37.57
2019-04-20T22:09:40.241Z,37.55
2019-04-20T22:12:03.670Z,37.58
2019-04-20T22:14:33.980Z,37.55
2019-04-20T22:17:05.410Z,37.59
2019-04-20T22:19:45.369Z,37.81
2019-04-20T22:22:18.307Z,37.99
2019-04-20T22:24:52.123Z,38.08
2019-04-20T22:27:15.876Z,38.25
2019-04-20T22:29:41.814Z,38.32
2019-04-20T22:32:13.790Z,38.29
2019-04-20T22:34:47.619Z,38.34
2019-04-20T22:37:22.072Z,38.49
2019-04-20T22:39:53.955Z,38.80
2019-04-20T22:42:22.264Z,38.77
2019-04-20T22:44:57.537Z,38.69
2019-04-20T22:47:29.335Z,38.71
2019-04-20T22:50:15.090Z,38.71
2019-04-20T22:52:42.648Z,38.65
2019-04-20T22:55:20.047Z,38.62
2019-04-20T22:57:47.050Z,38.62
2019-04-20T23:00:09.907Z,38.69
2019-04-20T23:02:33.869Z,38.86
2019-04-20T23:05:04.802Z,38.96
2019-04-20T23:07:34.784Z,39.02
2019-04-20T23:10:08.647Z,38.99
2019-04-20T23:12:40.246Z,39.08
2019-04-20T23:15:10.409Z,39.15
2019-04-20T23:17:44.999Z,39.20
2019-04-20T23:20:17.242Z,39.38
2019-04-20T23:22:47.371Z,39.39
2019-04-20T23:25:15.370Z,39.59
2019-04-20T23:27:45.797Z,39.69
2019-04-20T23:30:23.133Z,39.85
2019-04-20T23:32:47.271Z,39.82
2019-04-20T23:35:21.063Z,39.88
2019-04-20T23:37:48.499Z,39.95
2019-04-20T23:40:19.602Z,39.99
2019-04-20T23:42:53.782Z,40.08
2019-04-20T23:45:45.700Z,40.16
2019-04-20T23:48:14.330Z,40.21
2019-04-20T23:51:01.173Z,40.41
2019-04-20T23:53:32.248Z,40.54
2019-04-20T23:55:47.881Z,40.55
2019-04-20T23:58:18.137Z,40.46
